Aérodrome :
LOGIN :

S'inscrire | Disclaimer

   EN    FR    IT 

 










Légende :    VFR   VFR Marginal   IFR   IFR Intensif   IFR Très Intensif
Visi : 
Plafond : 
>= 8 km
>= 3000ft
5 à 8 km
1000 à 3000 ft
1500m à 5 km
500 à 1000 ft
800 à 1500m
200 à 500 ft
< 800m
< 200 ft
Symboles :   Orages  Brouillard  Fortes neiges  Fortes précipitations  Vent > 20 kt
SIGMETs :   Divers  Orages  Givrage  Turbulence  Onde Orograph.  Cendres Volcan.






- Altitude de l'aérodrome : 56 ft
- Code IATA : ILY


EGPI - Islay

DERNIER METAR :
  • 051650Z 23026KT 3500 -RA BR SCT003 BKN010 12/12 Q0994

METARs EXPIRÉS :
  • 051620Z 23027KT 200V260 3000 -RA BR SCT005 BKN013 12/12 Q0995
  • 051550Z 22019KT 190V250 1500 RADZ BR BKN003 BKN010 12/11 Q0995
  • 051520Z 22020KT 2000 RADZ BR SCT004 SCT010 11/11 Q0995
  • 051450Z AUTO 22022KT 2400 RA BKN004/// SCT016/// 11/11 Q0996
  • 051420Z 21022KT 180V240 5000 RADZ SCT006 BKN016 10/10 Q0996

TAF TAF EGPI
Valide du 05 à 15h jusqu'au 05 à 19h UTC


051400Z 0515/0519 20020G30KT 9999 SCT012 BKN018
TEMPO 0515/0519 23030G45KT 6000 RA BKN012
PROB40
TEMPO 0515/0519 4000 RADZ +RA BKN004
BECMG 0516/0519 25025G35KT



MET'MAP, la Météo Aéronautique d'un coup d'oeil ! - Copyright ORBIFLY Décembre 2007 - Disclaimer

ORBIFLY MET'MAP TEAM :

Programmation & Développement : Alexandra Zaïnal
Sur une idée originale de : Baudouin d'Aumeries
Assistance à la programmation : Marc-Olivier Méhu
Soutien technique & logistique : Manuel Goepfert

Contact : metmap@orbifly.com




SOURCES & CREDITS :

   NOAA